createdAt,value
2019-05-22T00:06:55.979Z,99050.39
2019-05-22T00:17:01.368Z,99038.94
2019-05-22T00:27:05.719Z,99040.70
2019-05-22T00:37:09.579Z,99030.58
2019-05-22T00:47:14.339Z,99035.45
2019-05-22T00:57:34.536Z,99039.59
2019-05-22T01:07:39.678Z,99044.58
2019-05-22T01:17:44.858Z,99044.66
2019-05-22T01:27:52.013Z,99050.53
2019-05-22T01:37:55.868Z,99053.31
2019-05-22T01:48:00.316Z,99048.53
2019-05-22T01:58:06.006Z,99045.58
2019-05-22T02:08:11.434Z,99039.70
2019-05-22T02:18:16.675Z,99045.98
2019-05-22T02:28:22.158Z,99053.30
2019-05-22T02:38:28.896Z,99047.45
2019-05-22T02:48:33.071Z,99050.63
2019-05-22T02:58:37.420Z,99052.05
2019-05-22T03:09:00.804Z,99068.11
2019-05-22T03:19:08.937Z,99071.64
2019-05-22T03:29:10.976Z,99063.83
2019-05-22T03:39:16.289Z,99073.16
2019-05-22T03:49:30.017Z,99075.83
2019-05-22T03:59:25.964Z,99080.77
2019-05-22T04:09:31.099Z,99076.77
2019-05-22T04:19:48.532Z,99082.14
2019-05-22T04:29:40.902Z,99086.14
2019-05-22T04:39:46.690Z,99084.77
2019-05-22T04:50:06.295Z,99091.03
2019-05-22T04:59:55.903Z,99101.23
2019-05-22T05:09:59.431Z,99114.96
2019-05-22T05:20:02.988Z,99114.56
2019-05-22T05:30:07.266Z,99130.09
2019-05-22T05:40:25.317Z,99131.89
2019-05-22T05:50:39.055Z,99141.73
2019-05-22T06:00:36.739Z,99145.41
2019-05-22T06:10:43.893Z,99159.67
2019-05-22T06:21:02.848Z,99154.80
2019-05-22T06:30:52.854Z,99155.59
2019-05-22T06:40:56.413Z,99165.69
2019-05-22T06:51:00.126Z,99168.36
2019-05-22T07:01:04.367Z,99188.68
2019-05-22T07:11:07.957Z,99192.10
2019-05-22T07:21:11.783Z,99183.89
2019-05-22T07:31:15.639Z,99208.36
2019-05-22T07:41:19.833Z,99209.05
2019-05-22T07:51:23.491Z,99205.02
2019-05-22T08:01:27.387Z,99224.01
2019-05-22T08:11:31.331Z,99236.63
2019-05-22T08:21:35.090Z,99235.61
2019-05-22T08:31:39.459Z,99253.46
2019-05-22T08:41:43.965Z,99255.45
2019-05-22T08:51:47.685Z,99259.63
2019-05-22T09:01:51.642Z,99262.16
2019-05-22T09:11:55.567Z,99282.31
2019-05-22T09:21:59.147Z,99288.73
2019-05-22T09:32:04.628Z,99295.25
2019-05-22T09:42:08.944Z,99305.14
2019-05-22T09:52:13.892Z,99306.19
2019-05-22T10:02:17.530Z,99320.41
2019-05-22T10:12:21.365Z,99330.54
2019-05-22T10:22:24.912Z,99345.49
2019-05-22T10:32:32.123Z,99362.91
2019-05-22T10:42:35.385Z,99368.25
2019-05-22T10:52:38.955Z,99382.13
2019-05-22T11:02:42.610Z,99386.13
2019-05-22T11:12:46.581Z,99400.51
2019-05-22T11:22:50.483Z,99418.78
2019-05-22T11:32:54.855Z,99422.66
2019-05-22T11:42:58.634Z,99418.42
2019-05-22T11:53:03.239Z,99425.52
2019-05-22T12:03:07.470Z,99439.96
2019-05-22T12:13:12.359Z,99437.23
2019-05-22T12:23:15.905Z,99425.29
2019-05-22T12:33:19.843Z,99437.16
2019-05-22T12:43:24.093Z,99450.33
2019-05-22T12:53:28.131Z,99475.52
2019-05-22T13:03:33.094Z,99451.50
2019-05-22T13:13:36.679Z,99474.45
2019-05-22T13:23:42.026Z,99468.48
2019-05-22T13:33:46.321Z,99480.16
2019-05-22T13:43:50.771Z,99484.31
2019-05-22T13:53:54.315Z,99491.80
2019-05-22T14:03:57.953Z,99513.73
2019-05-22T14:14:01.652Z,99518.36
2019-05-22T14:24:05.220Z,99538.83
2019-05-22T14:34:08.874Z,99547.45
2019-05-22T14:44:12.439Z,99560.55
2019-05-22T14:54:16.141Z,99559.11
2019-05-22T15:04:19.757Z,99557.44
2019-05-22T15:14:23.335Z,99548.19
2019-05-22T15:24:27.685Z,99557.31
2019-05-22T15:34:32.908Z,99549.38
2019-05-22T15:44:37.935Z,99554.45
2019-05-22T15:54:42.944Z,99568.34
2019-05-22T16:04:46.924Z,99576.55
2019-05-22T16:14:50.474Z,99592.69
2019-05-22T16:24:54.321Z,99609.81
2019-05-22T16:34:58.052Z,99616.85
2019-05-22T16:45:04.460Z,99614.78
2019-05-22T16:55:09.980Z,99645.56
2019-05-22T17:05:14.045Z,99663.89
2019-05-22T17:15:18.491Z,99690.00
2019-05-22T17:25:23.579Z,99681.59
2019-05-22T17:35:28.315Z,99697.21
2019-05-22T17:45:33.228Z,99700.95
2019-05-22T17:55:37.140Z,99721.69
2019-05-22T18:05:42.163Z,99742.83
2019-05-22T18:15:46.625Z,99756.43
2019-05-22T18:25:50.335Z,99761.04
2019-05-22T18:35:53.902Z,99770.30
2019-05-22T18:45:57.684Z,99779.04
2019-05-22T18:56:01.384Z,99802.96
2019-05-22T19:06:05.070Z,99836.33
2019-05-22T19:16:08.629Z,99886.64
2019-05-22T19:26:12.190Z,99853.91
2019-05-22T19:36:15.779Z,99843.61
2019-05-22T19:46:19.559Z,99848.80
2019-05-22T19:56:24.624Z,99848.37
2019-05-22T20:06:28.282Z,99843.69
2019-05-22T20:16:32.193Z,99854.16
2019-05-22T20:26:36.028Z,99867.65
2019-05-22T20:36:40.678Z,99860.73
2019-05-22T20:46:45.696Z,99850.59
2019-05-22T20:56:53.889Z,99873.75
2019-05-22T21:07:00.615Z,99874.48
2019-05-22T21:17:06.313Z,99867.00
2019-05-22T21:27:11.214Z,99866.20
2019-05-22T21:37:15.824Z,99871.67
2019-05-22T21:47:20.365Z,99874.25
2019-05-22T21:57:24.288Z,99877.58
2019-05-22T22:07:28.362Z,99896.67
2019-05-22T22:17:33.840Z,99901.12
2019-05-22T22:27:43.685Z,99899.06
2019-05-22T22:37:48.977Z,99909.34
2019-05-22T22:47:54.256Z,99904.58
2019-05-22T22:57:57.813Z,99897.56
2019-05-22T23:08:01.512Z,99915.77
2019-05-22T23:18:06.162Z,99923.39
2019-05-22T23:28:11.063Z,99933.21
2019-05-22T23:38:15.295Z,99931.47
2019-05-22T23:48:19.957Z,99941.33
2019-05-22T23:58:25.090Z,99950.23
